createdAt,value
2022-09-21T06:14:45.567Z,8.07
2022-09-21T06:24:45.618Z,7.49
2022-09-21T06:34:45.429Z,7.85
2022-09-21T06:44:45.545Z,7.71
2022-09-21T06:54:45.597Z,8.16
2022-09-21T07:04:45.525Z,8.69
2022-09-21T07:14:45.567Z,8.84
2022-09-21T07:24:45.499Z,9.56
2022-09-21T07:34:45.787Z,10.05
2022-09-21T07:44:45.588Z,10.77
2022-09-21T07:54:45.773Z,11.22
2022-09-21T08:04:45.529Z,11.84
2022-09-21T08:14:45.700Z,12.38
2022-09-21T08:24:45.610Z,12.62
2022-09-21T08:34:45.778Z,13.04
2022-09-21T08:44:45.859Z,13.00
2022-09-21T08:54:46.039Z,13.60
2022-09-21T09:04:46.129Z,14.10
2022-09-21T09:14:46.069Z,14.25
2022-09-21T09:24:45.958Z,13.40
2022-09-21T09:34:46.120Z,13.69
2022-09-21T09:44:46.029Z,14.92
2022-09-21T09:54:46.024Z,14.95
2022-09-21T10:04:46.204Z,14.94
2022-09-21T10:14:46.040Z,15.50
2022-09-21T10:24:46.001Z,16.52
2022-09-21T10:34:46.298Z,16.74
2022-09-21T10:44:46.017Z,17.05
2022-09-21T10:54:46.128Z,15.45
2022-09-21T11:04:46.200Z,17.27
2022-09-21T11:14:46.298Z,16.97
2022-09-21T11:24:46.319Z,17.12
2022-09-21T11:34:46.127Z,17.05
2022-09-21T11:44:46.237Z,17.41
2022-09-21T11:54:46.155Z,17.08
2022-09-21T12:04:46.290Z,17.47
2022-09-21T12:14:46.240Z,16.72
2022-09-21T12:24:46.163Z,17.23
2022-09-21T12:34:46.216Z,17.73
2022-09-21T12:44:46.112Z,17.62
2022-09-21T12:54:46.343Z,17.89
2022-09-21T13:04:46.362Z,18.39
2022-09-21T13:14:46.183Z,17.15
2022-09-21T13:24:46.158Z,17.54
2022-09-21T13:34:46.157Z,17.89
2022-09-21T13:44:46.230Z,17.02
2022-09-21T13:54:46.200Z,18.54
2022-09-21T14:04:46.149Z,17.11
2022-09-21T14:14:46.389Z,17.66
2022-09-21T14:24:46.257Z,17.26
2022-09-21T14:34:46.338Z,17.45
2022-09-21T14:44:46.533Z,17.91
2022-09-21T14:54:46.451Z,18.29
2022-09-21T15:04:46.605Z,17.68
2022-09-21T15:14:46.528Z,17.31
2022-09-21T15:24:46.394Z,17.48
2022-09-21T15:34:46.358Z,18.19
2022-09-21T15:44:46.343Z,17.58
2022-09-21T15:54:47.381Z,17.32
2022-09-21T16:04:46.419Z,17.08
2022-09-21T16:14:46.697Z,17.27
2022-09-21T16:24:46.487Z,17.47
2022-09-21T16:34:46.634Z,17.16
2022-09-21T16:44:46.476Z,16.19
2022-09-21T16:54:47.428Z,14.74
2022-09-21T17:04:46.488Z,13.35
2022-09-21T17:14:47.363Z,12.23
2022-09-21T17:24:50.711Z,11.92
2022-09-21T17:34:46.491Z,11.64
2022-09-21T17:44:46.514Z,11.33
2022-09-21T17:54:46.651Z,10.81
2022-09-21T18:04:46.549Z,10.47
2022-09-21T18:14:46.548Z,10.03
2022-09-21T18:24:46.618Z,9.52
2022-09-21T18:34:46.536Z,9.14
2022-09-21T18:44:47.682Z,9.41
2022-09-21T18:54:46.978Z,9.02
2022-09-21T19:04:46.951Z,8.46
2022-09-21T19:14:47.175Z,8.15
